Time;durP1;ratioP1;P1;durP2;ratioP2;P2;SDS_P1;SDS_P2;PMS_P1;PMS_P2;Temp;Humidity;BMP_temperature;BMP_pressure;BME280_temperature;BME280_humidity;BME280_pressure;Samples;Min_cycle;Max_cycle;Signal;HPM_P1;HPM_P2
2022/01/07 00:00:06;;;;;;;6.68;2.17;;;;;;;20.23;31.41;101382.19;7308921;19;129639;-61
2022/01/07 00:02:33;;;;;;;4.72;2.10;;;;;;;20.21;31.03;101373.25;7311021;19;131198;-61
2022/01/07 00:05:00;;;;;;;4.35;1.95;;;;;;;20.18;31.37;101373.78;7307602;19;131233;-61
2022/01/07 00:07:26;;;;;;;5.93;2.25;;;;;;;20.17;31.63;101365.66;7308517;19;131366;-60
2022/01/07 00:09:53;;;;;;;4.85;1.90;;;;;;;20.15;31.32;101357.59;7308991;19;130625;-61
2022/01/07 00:12:22;;;;;;;4.53;2.10;;;;;;;20.14;31.20;101355.91;7304064;19;132152;-61
2022/01/07 00:14:49;;;;;;;6.78;2.20;;;;;;;20.12;31.49;101360.84;7306784;19;131868;-61
2022/01/07 00:17:16;;;;;;;6.05;2.10;;;;;;;20.10;30.99;101354.69;7304284;19;130937;-61
2022/01/07 00:19:43;;;;;;;5.63;2.17;;;;;;;20.09;30.96;101355.78;7311554;19;128927;-61
2022/01/07 00:22:10;;;;;;;5.03;1.95;;;;;;;20.07;31.18;101352.41;7308531;19;132031;-61
2022/01/07 00:24:36;;;;;;;5.05;1.83;;;;;;;20.06;31.38;101342.41;7310427;19;131004;-61
2022/01/07 00:27:04;;;;;;;5.10;2.03;;;;;;;20.04;31.33;101339.03;7307829;19;129409;-61
2022/01/07 00:29:49;;;;;;;10.20;2.53;;;;;;;20.02;31.05;101330.09;7309668;19;129026;-61
2022/01/07 00:32:16;;;;;;;5.50;2.25;;;;;;;20.01;31.12;101328.41;7311360;19;131721;-61
2022/01/07 00:34:42;;;;;;;7.10;1.95;;;;;;;19.99;31.37;101321.16;7307301;19;131415;-61
2022/01/07 00:37:09;;;;;;;5.25;1.98;;;;;;;19.98;31.14;101305.53;7310613;19;128919;-60
2022/01/07 00:39:36;;;;;;;6.15;1.88;;;;;;;19.96;30.94;101315.22;7306805;19;129015;-61
2022/01/07 00:42:04;;;;;;;5.70;2.15;;;;;;;19.95;31.14;101308.81;7309593;19;132524;-61
2022/01/07 00:44:30;;;;;;;5.63;2.00;;;;;;;19.94;31.19;101303.50;7308073;19;131256;-60
2022/01/07 00:46:57;;;;;;;7.25;2.08;;;;;;;19.93;30.82;101299.03;7315438;19;132178;-61
2022/01/07 00:49:24;;;;;;;4.25;1.58;;;;;;;19.90;31.31;101293.97;7314387;19;128998;-61
2022/01/07 00:51:51;;;;;;;5.20;1.90;;;;;;;19.88;31.01;101282.31;7314773;19;131135;-61
2022/01/07 00:54:19;;;;;;;7.28;1.95;;;;;;;19.86;31.22;101282.53;7316105;19;131840;-62
2022/01/07 00:56:46;;;;;;;8.23;2.00;;;;;;;19.85;30.86;101280.84;7315359;19;128910;-61
2022/01/07 00:59:12;;;;;;;4.75;1.90;;;;;;;19.83;31.19;101266.34;7317339;19;129224;-61
2022/01/07 01:01:39;;;;;;;5.47;2.05;;;;;;;19.81;31.04;101258.28;7313498;19;131841;-61
2022/01/07 01:04:06;;;;;;;7.68;2.10;;;;;;;19.80;31.08;101259.38;7317398;19;131421;-61
2022/01/07 01:06:34;;;;;;;7.03;1.90;;;;;;;19.80;30.81;101272.41;7314426;19;131097;-60
2022/01/07 01:09:01;;;;;;;5.68;1.60;;;;;;;19.78;30.75;101255.16;7316141;19;128961;-61
2022/01/07 01:11:27;;;;;;;5.70;1.77;;;;;;;19.77;31.07;101261.81;7314445;19;131080;-60
2022/01/07 01:13:54;;;;;;;3.45;1.60;;;;;;;19.76;31.14;101269.25;7314716;19;131858;-61
2022/01/07 01:16:21;;;;;;;6.05;1.88;;;;;;;19.75;30.96;101262.06;7317998;19;129357;-61
2022/01/07 01:18:47;;;;;;;6.07;1.80;;;;;;;19.74;30.81;101262.28;7313587;19;130083;-61
2022/01/07 01:21:14;;;;;;;3.88;1.55;;;;;;;19.72;30.83;101270.00;7318385;19;131272;-61
2022/01/07 01:23:45;;;;;;;5.00;2.20;;;;;;;19.69;30.69;101261.06;7314347;19;131255;-61
2022/01/07 01:26:13;;;;;;;7.22;1.70;;;;;;;19.69;31.17;101263.03;7316608;19;131398;-61
2022/01/07 01:28:40;;;;;;;4.90;1.60;;;;;;;19.68;30.97;101266.88;7313929;19;129308;-61
2022/01/07 01:31:07;;;;;;;5.07;1.73;;;;;;;19.67;30.65;101254.09;7316605;19;131213;-61
2022/01/07 01:33:34;;;;;;;3.80;1.80;;;;;;;19.66;30.85;101255.19;7312623;19;131135;-61
2022/01/07 01:36:01;;;;;;;3.78;1.67;;;;;;;19.64;30.75;101251.81;7314202;19;128953;-61
2022/01/07 01:38:30;;;;;;;4.60;1.50;;;;;;;19.62;31.00;101234.56;7314874;19;129257;-61
2022/01/07 01:40:57;;;;;;;4.90;1.80;;;;;;;19.60;30.88;101240.34;7313550;19;131069;-61
2022/01/07 01:43:23;;;;;;;3.45;1.40;;;;;;;19.60;30.94;101229.25;7316631;19;131202;-61
2022/01/07 01:45:50;;;;;;;7.22;1.75;;;;;;;19.60;30.91;101228.44;7311215;19;128908;-61
2022/01/07 01:48:18;;;;;;;7.03;1.70;;;;;;;19.58;30.88;101234.19;7316104;19;129110;-61
2022/01/07 01:50:45;;;;;;;5.63;1.83;;;;;;;19.57;30.64;101235.28;7313395;19;131344;-61
2022/01/07 01:53:14;;;;;;;4.40;1.50;;;;;;;19.56;30.88;101222.53;7315267;19;130895;-61
2022/01/07 01:55:40;;;;;;;3.35;1.60;;;;;;;19.56;30.82;101221.66;7312693;19;131533;-61
2022/01/07 01:58:08;;;;;;;4.32;1.40;;;;;;;19.55;31.05;101215.28;7311716;19;129116;-61
2022/01/07 02:00:35;;;;;;;3.95;1.75;;;;;;;19.53;30.58;101218.28;7316281;19;131250;-61
2022/01/07 02:03:02;;;;;;;3.83;1.50;;;;;;;19.53;30.75;101209.13;7312392;19;131815;-61
2022/01/07 02:05:28;;;;;;;5.03;1.42;;;;;;;19.51;30.77;101211.31;7315365;19;128997;-61
2022/01/07 02:07:55;;;;;;;3.58;1.48;;;;;;;19.50;30.58;101209.63;7310928;19;129073;-60
2022/01/07 02:10:22;;;;;;;4.93;1.50;;;;;;;19.48;30.84;101198.78;7315356;19;131100;-61
2022/01/07 02:12:49;;;;;;;3.17;1.50;;;;;;;19.48;30.62;101200.69;7312001;19;131757;-61
2022/01/07 02:15:17;;;;;;;2.47;1.08;;;;;;;19.47;31.09;101197.09;7314894;19;128978;-61
2022/01/07 02:17:49;;;;;;;4.15;1.45;;;;;;;19.46;30.93;101189.84;7311963;19;129008;-61
2022/01/07 02:20:19;;;;;;;3.25;1.15;;;;;;;19.45;30.95;101193.72;7314397;19;130947;-61
2022/01/07 02:22:46;;;;;;;5.20;1.60;;;;;;;19.44;30.93;101185.66;7316512;19;131020;-61
2022/01/07 02:25:13;;;;;;;4.03;1.40;;;;;;;19.44;30.75;101180.09;7312611;19;129092;-61
2022/01/07 02:27:42;;;;;;;3.25;1.50;;;;;;;19.42;30.88;101177.53;7311749;19;128901;-60
2022/01/07 02:30:12;;;;;;;2.92;1.60;;;;;;;19.43;30.80;101172.84;7310909;19;131084;-61
2022/01/07 02:32:38;;;;;;;3.15;1.48;;;;;;;19.42;31.01;101172.00;7314067;19;131172;-61
2022/01/07 02:35:06;;;;;;;4.35;1.55;;;;;;;19.41;31.11;101178.63;7311848;19;128873;-61
2022/01/07 02:37:33;;;;;;;3.38;1.25;;;;;;;19.39;31.02;101161.38;7312541;19;128805;-61
2022/01/07 02:40:00;;;;;;;3.25;1.30;;;;;;;19.40;30.74;101167.78;7312005;19;131043;-61
2022/01/07 02:42:26;;;;;;;3.30;1.23;;;;;;;19.38;30.76;101149.47;7313096;19;132702;-60
2022/01/07 02:44:53;;;;;;;3.53;1.38;;;;;;;19.37;30.76;101161.63;7314937;19;128914;-61
2022/01/07 02:47:21;;;;;;;3.42;1.13;;;;;;;19.37;31.01;101158.88;7312296;19;129473;-61
2022/01/07 02:49:49;;;;;;;3.42;1.20;;;;;;;19.36;31.09;101153.56;7313996;19;131156;-61
2022/01/07 02:52:15;;;;;;;4.20;1.30;;;;;;;19.35;31.19;101152.72;7309960;19;131049;-61
2022/01/07 02:54:42;;;;;;;3.08;1.20;;;;;;;19.34;31.12;101148.25;7313772;19;129140;-61
2022/01/07 02:57:09;;;;;;;3.60;1.50;;;;;;;19.33;31.26;101149.34;7311518;19;131543;-61
2022/01/07 02:59:35;;;;;;;2.78;1.20;;;;;;;19.32;30.84;101133.78;7314083;19;131177;-61
2022/01/07 03:02:03;;;;;;;3.60;1.50;;;;;;;19.32;30.90;101133.78;7309938;19;131302;-61
2022/01/07 03:04:30;;;;;;;3.70;1.38;;;;;;;19.32;31.22;101130.19;7312086;19;128988;-60
2022/01/07 03:06:56;;;;;;;5.10;1.38;;;;;;;19.29;30.86;101131.53;7313137;19;129603;-61
2022/01/07 03:09:23;;;;;;;6.05;1.98;;;;;;;19.30;31.12;101135.13;7307931;19;138204;-61
2022/01/07 03:11:50;;;;;;;3.58;1.40;;;;;;;19.28;30.87;101137.28;7313556;19;132180;-61
2022/01/07 03:14:16;;;;;;;3.35;1.40;;;;;;;19.28;31.27;101134.53;7310135;19;129972;-61
2022/01/07 03:16:43;;;;;;;2.78;1.30;;;;;;;19.27;31.03;101130.91;7315081;19;129330;-61
2022/01/07 03:19:10;;;;;;;3.95;1.02;;;;;;;19.26;31.08;101129.22;7309797;19;131138;-61
2022/01/07 03:21:36;;;;;;;2.65;1.30;;;;;;;19.25;31.09;101133.09;7312852;19;131980;-61
2022/01/07 03:24:03;;;;;;;2.42;1.15;;;;;;;19.25;31.20;101133.09;7311184;19;128979;-61
2022/01/07 03:26:30;;;;;;;3.13;1.17;;;;;;;19.24;30.88;101131.41;7311324;19;128881;-61
2022/01/07 03:28:57;;;;;;;2.67;1.33;;;;;;;19.22;31.21;101126.13;7311205;19;131099;-61
2022/01/07 03:31:23;;;;;;;4.47;1.58;;;;;;;19.22;31.03;101123.34;7310950;19;131102;-61
2022/01/07 03:33:50;;;;;;;2.88;1.08;;;;;;;19.20;30.84;101114.38;7313507;19;128955;-61
2022/01/07 03:36:17;;;;;;;2.30;1.33;;;;;;;19.20;31.18;101121.88;7308289;19;129152;-61
2022/01/07 03:38:44;;;;;;;2.60;1.58;;;;;;;19.20;31.18;101113.56;7312059;19;131229;-61
2022/01/07 03:41:11;;;;;;;2.03;1.10;;;;;;;19.19;31.12;101112.69;7309054;19;131205;-61
2022/01/07 03:43:37;;;;;;;3.80;1.30;;;;;;;19.18;31.06;101099.09;7314032;19;128658;-61
2022/01/07 03:46:04;;;;;;;3.50;1.10;;;;;;;19.17;30.99;101102.94;7309128;19;131661;-60
2022/01/07 03:48:31;;;;;;;2.15;0.93;;;;;;;19.17;31.31;101103.78;7311841;19;131879;-61
2022/01/07 03:50:58;;;;;;;3.40;1.20;;;;;;;19.16;31.38;101092.94;7309956;19;131048;-60
2022/01/07 03:53:25;;;;;;;2.47;1.10;;;;;;;19.16;31.21;101106.81;7310716;19;129089;-61
2022/01/07 03:55:52;;;;;;;3.10;1.10;;;;;;;19.15;31.28;101105.13;7312516;19;129074;-60
2022/01/07 03:58:19;;;;;;;3.63;1.20;;;;;;;19.13;31.22;101091.50;7309741;19;132940;-61
2022/01/07 04:00:46;;;;;;;1.77;1.05;;;;;;;19.12;31.36;101100.91;7313310;19;131598;-61
2022/01/07 04:03:16;;;;;;;3.28;1.13;;;;;;;19.13;31.27;101096.19;7308688;19;133210;-61
2022/01/07 04:05:44;;;;;;;1.42;1.00;;;;;;;19.12;31.18;101086.19;7312498;19;131285;-60
2022/01/07 04:08:11;;;;;;;1.85;1.00;;;;;;;19.10;31.23;101082.81;7309419;19;132356;-61
2022/01/07 04:10:39;;;;;;;2.10;1.15;;;;;;;19.10;31.41;101074.50;7311443;19;131290;-61
2022/01/07 04:13:06;;;;;;;2.28;1.20;;;;;;;19.10;31.24;101068.94;7309173;19;129042;-60
2022/01/07 04:15:33;;;;;;;2.63;1.17;;;;;;;19.10;31.72;101077.25;7309736;19;128927;-60
2022/01/07 04:18:00;;;;;;;3.20;1.20;;;;;;;19.08;31.30;101083.91;7311012;19;131395;-60
2022/01/07 04:20:29;;;;;;;1.92;0.90;;;;;;;19.08;31.38;101070.03;7305855;19;131972;-61
2022/01/07 04:22:56;;;;;;;4.82;1.30;;;;;;;19.07;31.24;101073.06;7312925;19;128856;-60
2022/01/07 04:25:24;;;;;;;3.47;1.10;;;;;;;19.07;31.28;101075.84;7306138;19;128886;-61
2022/01/07 04:27:59;;;;;;;1.77;1.00;;;;;;;19.06;31.72;101071.38;7310965;19;132025;-61
2022/01/07 04:30:29;;;;;;;2.05;1.10;;;;;;;19.05;31.43;101078.88;7308577;19;131880;-61
2022/01/07 04:33:00;;;;;;;2.40;1.10;;;;;;;19.05;31.56;101072.47;7310124;19;130271;-61
2022/01/07 04:35:29;;;;;;;2.17;0.93;;;;;;;19.03;31.76;101072.72;7308483;19;129039;-60
2022/01/07 04:37:56;;;;;;;1.67;1.08;;;;;;;19.03;31.46;101069.09;7308577;19;131090;-60
2022/01/07 04:40:22;;;;;;;2.05;1.10;;;;;;;19.02;31.65;101067.41;7310767;19;132098;-61
2022/01/07 04:42:50;;;;;;;2.47;1.15;;;;;;;19.01;31.77;101072.13;7309213;19;128939;-61
2022/01/07 04:45:17;;;;;;;1.90;1.10;;;;;;;19.00;31.46;101067.66;7311427;19;129042;-61
2022/01/07 04:47:44;;;;;;;2.83;1.02;;;;;;;19.01;31.73;101066.56;7306238;19;132341;-61
2022/01/07 04:50:14;;;;;;;3.17;1.35;;;;;;;19.01;31.72;101074.06;7310268;19;131635;-61
2022/01/07 04:52:44;;;;;;;2.25;1.00;;;;;;;18.99;31.64;101068.75;7308206;19;128898;-60
2022/01/07 04:55:14;;;;;;;2.55;1.20;;;;;;;18.98;31.48;101067.06;7308842;19;130543;-61
2022/01/07 04:57:42;;;;;;;2.28;1.05;;;;;;;18.99;31.92;101073.47;7307275;19;132211;-60
2022/01/07 05:00:09;;;;;;;1.45;0.95;;;;;;;18.97;31.54;101070.91;7305767;19;131052;-61
2022/01/07 05:02:36;;;;;;;2.55;0.98;;;;;;;18.96;31.95;101069.22;7310227;19;129721;-60
2022/01/07 05:05:04;;;;;;;1.58;0.90;;;;;;;18.96;31.86;101069.22;7307782;19;128842;-61
2022/01/07 05:07:31;;;;;;;2.42;1.10;;;;;;;18.95;31.42;101064.78;7312129;19;131263;-61
2022/01/07 05:09:57;;;;;;;2.53;1.10;;;;;;;18.96;31.80;101062.84;7307364;19;131090;-61
2022/01/07 05:12:24;;;;;;;2.63;1.00;;;;;;;18.95;31.77;101070.34;7310832;19;128867;-61
2022/01/07 05:14:51;;;;;;;2.25;1.13;;;;;;;18.94;31.56;101071.44;7308334;19;129044;-61
2022/01/07 05:17:17;;;;;;;3.47;0.95;;;;;;;18.94;31.77;101065.88;7310259;19;131766;-61
2022/01/07 05:19:44;;;;;;;2.38;1.13;;;;;;;18.95;31.92;101069.47;7308794;19;131228;-60
2022/01/07 05:22:11;;;;;;;1.90;0.95;;;;;;;18.94;31.87;101060.34;7309807;19;129146;-61
2022/01/07 05:24:37;;;;;;;1.92;0.80;;;;;;;18.94;31.77;101057.56;7310505;19;129143;-61
2022/01/07 05:27:04;;;;;;;3.42;1.02;;;;;;;18.94;31.52;101059.47;7306559;19;130962;-61
2022/01/07 05:29:34;;;;;;;1.83;1.00;;;;;;;18.94;31.73;101051.16;7311839;19;131452;-61
2022/01/07 05:32:04;;;;;;;1.40;0.93;;;;;;;18.94;31.54;101053.94;7308462;19;129089;-61
2022/01/07 05:34:31;;;;;;;2.45;1.00;;;;;;;18.94;31.92;101060.34;7317508;19;129846;-61
2022/01/07 05:36:58;;;;;;;1.88;1.10;;;;;;;18.94;32.04;101059.47;7313241;19;131087;-61
2022/01/07 05:39:25;;;;;;;2.58;0.88;;;;;;;18.93;31.64;101050.34;7314922;19;131877;-61
2022/01/07 05:41:52;;;;;;;1.75;0.98;;;;;;;18.92;31.87;101051.41;7313481;19;128942;-61
2022/01/07 05:44:19;;;;;;;1.95;1.23;;;;;;;18.91;31.88;101041.41;7313201;19;129241;-61
2022/01/07 05:46:45;;;;;;;2.60;0.95;;;;;;;18.91;32.02;101041.41;7315884;19;132166;-61
2022/01/07 05:49:12;;;;;;;2.53;1.17;;;;;;;18.91;31.62;101046.97;7311389;19;131543;-61
2022/01/07 05:51:41;;;;;;;1.65;0.95;;;;;;;18.90;31.73;101042.50;7315657;19;131508;-61
2022/01/07 05:54:09;;;;;;;3.47;1.48;;;;;;;18.91;32.08;101044.19;7311287;19;128930;-61
2022/01/07 05:56:36;;;;;;;1.85;0.93;;;;;;;18.90;31.66;101046.09;7314329;19;131916;-61
2022/01/07 05:59:04;;;;;;;2.13;1.17;;;;;;;18.91;31.96;101046.97;7310881;19;131064;-61
2022/01/07 06:01:31;;;;;;;2.65;1.50;;;;;;;18.90;31.87;101048.03;7314860;19;129147;-61
2022/01/07 06:03:58;;;;;;;2.20;1.15;;;;;;;18.91;31.96;101044.19;7311287;19;128992;-61
2022/01/07 06:06:25;;;;;;;2.83;1.10;;;;;;;18.90;31.94;101042.50;7312275;19;131972;-61
2022/01/07 06:08:52;;;;;;;1.98;1.10;;;;;;;18.90;32.00;101045.28;7313685;19;131860;-61
2022/01/07 06:11:18;;;;;;;3.75;1.15;;;;;;;18.90;32.17;101045.28;7310727;19;129703;-61
2022/01/07 06:13:45;;;;;;;1.85;1.02;;;;;;;18.88;32.01;101045.53;7312287;19;129450;-61
2022/01/07 06:16:12;;;;;;;2.08;1.05;;;;;;;18.88;31.89;101041.91;7307307;19;131959;-61
2022/01/07 06:18:50;;;;;;;1.83;0.90;;;;;;;18.88;31.85;101033.59;7311529;19;131691;-61
2022/01/07 06:21:18;;;;;;;1.48;0.70;;;;;;;18.88;32.22;101044.66;7310057;19;131587;-61
2022/01/07 06:23:45;;;;;;;2.53;1.20;;;;;;;18.87;32.24;101042.97;7314875;19;129059;-63
2022/01/07 06:26:12;;;;;;;3.63;1.20;;;;;;;18.87;31.94;101051.31;7310527;19;132206;-61
2022/01/07 06:28:39;;;;;;;2.17;1.02;;;;;;;18.94;32.11;101038.16;7311558;19;130922;-61
2022/01/07 06:31:06;;;;;;;2.33;1.13;;;;;;;19.07;32.21;101048.97;7316568;19;128895;-61
2022/01/07 06:33:32;;;;;;;2.83;1.13;;;;;;;19.30;31.89;101043.59;7313890;19;129456;-61
2022/01/07 06:35:59;;;;;;;1.70;0.82;;;;;;;19.54;31.65;101047.09;7314741;19;131814;-61
2022/01/07 06:38:26;;;;;;;3.00;1.17;;;;;;;19.84;31.34;101045.94;7306840;19;131162;-61
2022/01/07 06:40:52;;;;;;;5.03;1.13;;;;;;;20.11;30.91;101043.38;7311533;19;129065;-61
2022/01/07 06:43:19;;;;;;;2.25;1.17;;;;;;;20.38;30.82;101052.94;7311517;19;129029;-61
2022/01/07 06:45:46;;;;;;;2.13;1.05;;;;;;;20.58;30.55;101061.56;7314808;19;132305;-61
2022/01/07 06:48:13;;;;;;;1.40;0.93;;;;;;;20.78;30.43;101059.34;7310803;19;131013;-61
2022/01/07 06:50:41;;;;;;;3.00;1.17;;;;;;;20.94;30.35;101063.16;7314164;19;129003;-61
2022/01/07 06:53:08;;;;;;;2.80;0.90;;;;;;;21.07;30.08;101059.97;7311430;19;129101;-61
2022/01/07 06:55:53;;;;;;;2.97;1.15;;;;;;;21.19;30.27;101060.69;7306908;19;131969;-61
2022/01/07 06:58:20;;;;;;;2.40;1.27;;;;;;;21.28;29.84;101060.25;7309497;19;131500;-61
2022/01/07 07:00:47;;;;;;;2.33;1.00;;;;;;;21.32;29.72;101058.59;7306697;19;132208;-61
2022/01/07 07:03:14;;;;;;;3.25;1.30;;;;;;;21.35;29.79;101050.56;7314493;19;129591;-61
2022/01/07 07:05:40;;;;;;;3.28;1.17;;;;;;;21.37;29.86;101053.09;7311626;19;131324;-61
2022/01/07 07:08:07;;;;;;;1.33;0.82;;;;;;;21.40;29.80;101052.59;7313984;19;132100;-62
2022/01/07 07:10:34;;;;;;;3.20;1.20;;;;;;;21.40;29.55;101051.72;7312351;19;129077;-61
2022/01/07 07:13:00;;;;;;;2.85;1.02;;;;;;;21.40;29.98;101048.94;7313440;19;128970;-60
2022/01/07 07:15:27;;;;;;;4.53;1.45;;;;;;;21.37;29.97;101051.13;7314221;19;131211;-61
2022/01/07 07:17:54;;;;;;;2.63;0.90;;;;;;;21.35;29.59;101046.94;7311427;19;131705;-62
2022/01/07 07:20:21;;;;;;;3.78;1.02;;;;;;;21.32;29.62;101053.03;7312682;19;128789;-61
2022/01/07 07:22:47;;;;;;;3.45;1.35;;;;;;;21.26;29.85;101048.53;7311472;19;130207;-61
2022/01/07 07:25:14;;;;;;;3.85;1.27;;;;;;;21.20;29.71;101047.63;7315400;19;131170;-61
2022/01/07 07:27:41;;;;;;;4.03;0.88;;;;;;;21.14;30.00;101043.09;7311107;19;131113;-61
2022/01/07 07:30:10;;;;;;;3.67;1.10;;;;;;;21.09;30.26;101045.84;7314357;19;128765;-61
2022/01/07 07:32:38;;;;;;;3.40;1.45;;;;;;;21.01;30.24;101041.56;7311088;19;129048;-61
2022/01/07 07:37:41;;;;;;;3.88;1.30;;;;;;;20.86;30.13;101040.28;7314127;19;131234;-61
2022/01/07 07:40:08;;;;;;;3.60;1.40;;;;;;;20.79;30.16;101042.41;7309815;19;130443;-60
2022/01/07 07:42:35;;;;;;;2.60;1.20;;;;;;;20.74;30.32;101047.88;7313794;19;129052;-61
2022/01/07 07:45:02;;;;;;;5.85;1.50;;;;;;;20.68;30.31;101057.22;7309729;19;131094;-61
2022/01/07 07:47:29;;;;;;;7.10;1.70;;;;;;;20.62;29.76;101047.97;7313782;19;131303;-61
2022/01/07 07:49:57;;;;;;;5.88;1.60;;;;;;;20.57;29.57;101057.09;7310745;19;129065;-60
2022/01/07 07:52:24;;;;;;;5.40;1.40;;;;;;;20.54;29.79;101054.84;7313556;19;129707;-61
2022/01/07 07:54:50;;;;;;;5.80;1.60;;;;;;;20.50;29.97;101053.66;7309668;19;131168;-60
2022/01/07 07:57:19;;;;;;;7.68;1.40;;;;;;;20.49;29.63;101054.75;7311897;19;131213;-61
2022/01/07 07:59:46;;;;;;;4.53;1.50;;;;;;;20.45;29.94;101048.88;7312507;19;129644;-60
2022/01/07 08:02:13;;;;;;;11.45;1.90;;;;;;;20.45;29.78;101039.69;7310317;19;128934;-60
2022/01/07 08:04:40;;;;;;;5.63;1.73;;;;;;;20.43;30.02;101042.72;7313393;19;131259;-60
2022/01/07 08:07:08;;;;;;;5.05;1.50;;;;;;;20.41;29.52;101046.88;7310314;19;131080;-60
2022/01/07 08:09:38;;;;;;;5.50;1.52;;;;;;;20.38;29.50;101044.59;7314456;19;129101;-60
2022/01/07 08:12:18;;;;;;;3.47;1.35;;;;;;;20.37;29.99;101032.63;7310766;19;129075;-60
2022/01/07 08:17:30;;;;;;;4.88;1.77;;;;;;;20.35;29.94;101040.41;7310302;19;131152;-60
2022/01/07 08:19:57;;;;;;;6.47;1.67;;;;;;;20.33;29.60;101030.63;7307738;19;131582;-60
2022/01/07 08:22:23;;;;;;;7.55;1.63;;;;;;;20.32;29.77;101037.25;7312896;19;129030;-60
2022/01/07 08:24:51;;;;;;;3.92;1.73;;;;;;;20.31;29.61;101036.44;7307975;19;131933;-61
2022/01/07 08:27:21;;;;;;;8.30;1.58;;;;;;;20.31;29.59;101035.63;7312714;19;131099;-60
2022/01/07 08:30:05;;;;;;;6.18;1.70;;;;;;;20.29;29.82;101052.50;7308883;19;130185;-60
2022/01/07 08:35:18;;;;;;;4.82;1.60;;;;;;;20.26;29.64;101058.56;7313433;19;131373;-60
2022/01/07 08:37:45;;;;;;;7.18;1.88;;;;;;;20.23;29.98;101062.72;7309340;19;131865;-60
2022/01/07 08:40:12;;;;;;;12.52;2.10;;;;;;;20.26;29.97;101073.31;7312268;19;128996;-60
2022/01/07 08:42:38;;;;;;;8.85;1.52;;;;;;;20.31;29.49;101060.63;7308396;19;129694;-60
2022/01/07 08:45:06;;;;;;;16.30;1.92;;;;;;;20.37;29.49;101065.13;7311470;19;131302;-60
2022/01/07 08:47:32;;;;;;;11.10;1.88;;;;;;;20.43;29.41;101066.91;7309999;19;131027;-60
2022/01/07 08:49:59;;;;;;;8.35;1.77;;;;;;;20.50;29.46;101069.47;7311612;19;128714;-60
2022/01/07 08:52:26;;;;;;;10.80;1.75;;;;;;;20.56;29.33;101069.31;7307308;19;129204;-61
2022/01/07 08:54:53;;;;;;;10.35;2.00;;;;;;;20.63;29.29;101080.25;7309917;19;132349;-60
2022/01/07 08:57:21;;;;;;;13.68;2.05;;;;;;;20.68;29.25;101068.34;7311807;19;131772;-60
2022/01/07 08:59:51;;;;;;;13.68;2.20;;;;;;;20.73;29.35;101054.53;7308418;19;129439;-61
2022/01/07 09:02:19;;;;;;;22.17;1.85;;;;;;;20.75;29.31;101061.53;7312378;19;128718;-61
2022/01/07 09:04:46;;;;;;;17.55;1.92;;;;;;;20.79;29.33;101056.31;7308289;19;131124;-62
2022/01/07 09:07:12;;;;;;;22.58;2.20;;;;;;;20.85;29.15;101055.28;7312352;19;130969;-61
2022/01/07 09:09:40;;;;;;;20.00;2.33;;;;;;;20.91;29.12;101056.19;7314016;19;129090;-61
2022/01/07 09:12:08;;;;;;;8.98;1.60;;;;;;;20.94;28.84;101057.59;7317057;19;138347;-62
2022/01/07 09:14:35;;;;;;;23.33;2.67;;;;;;;20.96;29.19;101055.41;7315233;19;132641;-62
2022/01/07 09:17:02;;;;;;;18.45;2.10;;;;;;;20.96;29.74;101042.34;7317655;19;131214;-61
2022/01/07 09:19:29;;;;;;;11.07;2.08;;;;;;;20.99;29.52;101055.72;7318459;19;130025;-61
2022/01/07 09:21:56;;;;;;;8.90;1.73;;;;;;;21.00;29.76;101046.28;7312888;19;128908;-62
2022/01/07 09:24:26;;;;;;;14.23;1.77;;;;;;;21.02;30.01;101044.06;7317856;19;131147;-61
2022/01/07 09:26:53;;;;;;;4.40;1.55;;;;;;;21.04;29.99;101041.06;7313670;19;131589;-62
2022/01/07 09:29:23;;;;;;;8.90;1.70;;;;;;;21.06;30.44;101047.16;7318030;19;129026;-61
2022/01/07 09:31:51;;;;;;;10.25;1.90;;;;;;;21.09;30.51;101060.56;7315993;19;128946;-61
2022/01/07 09:34:18;;;;;;;10.35;1.83;;;;;;;21.09;30.75;101052.22;7317242;19;131660;-62
2022/01/07 09:36:54;;;;;;;5.45;1.42;;;;;;;21.09;30.63;101054.19;7315910;19;132319;-61
2022/01/07 09:39:21;;;;;;;6.82;1.52;;;;;;;21.10;30.52;101041.94;7316680;19;129419;-62
2022/01/07 09:41:48;;;;;;;7.20;1.42;;;;;;;21.12;30.61;101048.94;7315827;19;129246;-63
2022/01/07 09:44:15;;;;;;;6.85;1.48;;;;;;;21.13;31.05;101045.03;7314017;19;131105;-61
2022/01/07 09:46:43;;;;;;;7.22;1.52;;;;;;;21.13;30.93;101042.25;7318267;19;131493;-61
2022/01/07 09:49:10;;;;;;;6.05;1.80;;;;;;;21.18;31.19;101050.66;7314510;19;136471;-61
2022/01/07 09:51:38;;;;;;;4.90;1.50;;;;;;;21.20;31.02;101042.88;7318386;19;129794;-62
2022/01/07 09:54:07;;;;;;;9.02;1.45;;;;;;;21.25;30.79;101035.72;7314214;19;131465;-62
2022/01/07 09:56:34;;;;;;;5.95;1.30;;;;;;;21.27;31.03;101039.91;7305030;19;131716;-61
2022/01/07 09:59:05;;;;;;;5.65;1.30;;;;;;;21.28;31.29;101037.97;7311805;19;129498;-61
2022/01/07 10:01:53;;;;;;;4.43;1.30;;;;;;;21.27;31.22;101033.50;7312963;19;129956;-61
2022/01/07 10:04:47;;;;;;;8.30;1.80;;;;;;;21.27;31.09;101033.50;7316033;19;132112;-62
2022/01/07 10:07:25;;;;;;;6.32;1.55;;;;;;;21.31;31.46;101031.88;7312626;19;131070;-62
2022/01/07 10:10:08;;;;;;;3.70;1.40;;;;;;;21.32;31.66;101019.63;7314833;19;128827;-62
2022/01/07 10:13:00;;;;;;;13.20;1.95;;;;;;;21.32;31.60;101031.63;7316764;19;129132;-61
2022/01/07 10:15:29;;;;;;;11.70;1.90;;;;;;;21.32;31.82;101027.97;7312986;19;131257;-62
2022/01/07 10:18:08;;;;;;;5.03;1.30;;;;;;;21.32;31.93;101025.19;7315382;19;131196;-62
2022/01/07 10:20:45;;;;;;;8.45;2.03;;;;;;;21.32;32.17;101012.16;7313855;19;129078;-62
2022/01/07 10:23:14;;;;;;;7.63;1.40;;;;;;;21.34;32.70;101025.78;7315117;19;128826;-62
2022/01/07 10:25:46;;;;;;;9.88;1.40;;;;;;;21.37;32.83;101025.28;7312572;19;132559;-62
2022/01/07 10:28:16;;;;;;;5.22;1.42;;;;;;;21.39;32.90;101013.84;7313212;19;131403;-62
2022/01/07 10:30:52;;;;;;;5.07;1.58;;;;;;;21.42;33.57;101011.38;7316862;19;128970;-62
2022/01/07 10:33:25;;;;;;;5.72;1.50;;;;;;;21.45;33.24;101015.59;7313611;19;131538;-62
2022/01/07 10:35:58;;;;;;;5.38;1.10;;;;;;;21.46;33.48;101014.50;7315091;19;131501;-62
2022/01/07 10:38:29;;;;;;;4.53;1.17;;;;;;;21.49;34.09;101014.84;7312902;19;131446;-62
2022/01/07 10:41:00;;;;;;;4.00;1.50;;;;;;;21.51;34.25;101017.34;7314925;19;128936;-62
2022/01/07 10:43:36;;;;;;;8.85;1.55;;;;;;;21.56;34.18;101011.00;7313214;19;128961;-63
2022/01/07 10:46:30;;;;;;;7.88;1.58;;;;;;;21.57;34.38;101005.19;7311509;19;130841;-62
2022/01/07 10:48:59;;;;;;;9.27;1.63;;;;;;;21.57;33.62;101001.53;7316772;19;131278;-62
2022/01/07 10:51:38;;;;;;;6.00;1.65;;;;;;;21.56;33.89;101002.63;7312057;19;128920;-62
2022/01/07 10:54:10;;;;;;;12.77;1.90;;;;;;;21.56;33.89;101002.63;7315160;19;128743;-63
2022/01/07 10:56:42;;;;;;;13.25;1.80;;;;;;;21.57;33.98;101015.44;7312989;19;131186;-63
2022/01/07 10:59:11;;;;;;;6.25;1.40;;;;;;;21.57;34.52;101015.44;7312648;19;132287;-63
2022/01/07 11:01:54;;;;;;;7.00;1.38;;;;;;;21.58;34.22;101023.56;7312702;19;129084;-62
2022/01/07 11:04:27;;;;;;;8.48;1.40;;;;;;;21.58;34.58;101009.63;7309522;19;129822;-63
2022/01/07 11:06:57;;;;;;;4.05;1.40;;;;;;;21.59;34.79;101011.31;7313976;19;132525;-63
2022/01/07 11:09:25;;;;;;;8.27;1.90;;;;;;;21.60;34.70;101009.38;7312509;19;131646;-62
2022/01/07 11:11:53;;;;;;;9.05;1.40;;;;;;;21.61;34.97;101011.03;7312703;19;131479;-63
2022/01/07 11:14:30;;;;;;;6.18;1.23;;;;;;;21.61;35.10;101006.31;7311145;19;128979;-62
2022/01/07 11:17:03;;;;;;;7.18;1.50;;;;;;;21.61;35.33;101013.84;7310270;19;132156;-62
2022/01/07 11:19:35;;;;;;;4.80;1.40;;;;;;;21.62;35.45;101002.41;7313779;19;131105;-62
2022/01/07 11:22:04;;;;;;;5.60;1.65;;;;;;;21.63;35.29;100997.72;7309528;19;130099;-62
2022/01/07 11:24:48;;;;;;;5.00;1.63;;;;;;;21.64;35.26;101002.16;7312805;19;129732;-63
2022/01/07 11:27:25;;;;;;;6.10;1.40;;;;;;;21.65;35.39;101001.06;7311679;19;131209;-62
2022/01/07 11:30:07;;;;;;;4.63;1.30;;;;;;;21.64;35.76;100991.88;7309005;19;131049;-62